sensor_id;sensor_type;location;lat;lon;timestamp;P1;durP1;ratioP1;P2;durP2;ratioP2
22711;SDS011;11523;50.390;8.072;2022-09-01T04:01:09;7.80;;;4.97;;
22711;SDS011;11523;50.390;8.072;2022-09-01T04:03:41;5.72;;;5.13;;
22711;SDS011;11523;50.390;8.072;2022-09-01T04:06:13;7.47;;;4.70;;
22711;SDS011;11523;50.390;8.072;2022-09-01T04:08:39;7.32;;;5.05;;
22711;SDS011;11523;50.390;8.072;2022-09-01T04:11:12;6.20;;;5.35;;
22711;SDS011;11523;50.390;8.072;2022-09-01T04:13:40;5.18;;;4.68;;
22711;SDS011;11523;50.390;8.072;2022-09-01T04:16:06;5.45;;;4.95;;
22711;SDS011;11523;50.390;8.072;2022-09-01T04:18:55;6.35;;;5.65;;
22711;SDS011;11523;50.390;8.072;2022-09-01T04:21:21;5.07;;;4.68;;
22711;SDS011;11523;50.390;8.072;2022-09-01T04:23:47;7.22;;;5.55;;
22711;SDS011;11523;50.390;8.072;2022-09-01T04:26:13;5.75;;;5.10;;
22711;SDS011;11523;50.390;8.072;2022-09-01T04:28:45;5.90;;;5.40;;
22711;SDS011;11523;50.390;8.072;2022-09-01T04:31:13;7.05;;;5.32;;
22711;SDS011;11523;50.390;8.072;2022-09-01T04:33:41;6.20;;;5.60;;
22711;SDS011;11523;50.390;8.072;2022-09-01T04:36:29;5.88;;;5.38;;
22711;SDS011;11523;50.390;8.072;2022-09-01T04:39:01;9.40;;;5.28;;
22711;SDS011;11523;50.390;8.072;2022-09-01T04:41:32;5.75;;;5.18;;
22711;SDS011;11523;50.390;8.072;2022-09-01T04:43:59;6.07;;;5.57;;
22711;SDS011;11523;50.390;8.072;2022-09-01T04:46:29;5.90;;;5.40;;
22711;SDS011;11523;50.390;8.072;2022-09-01T04:48:57;6.43;;;4.85;;
22711;SDS011;11523;50.390;8.072;2022-09-01T04:51:23;6.20;;;5.53;;
22711;SDS011;11523;50.390;8.072;2022-09-01T04:53:52;5.95;;;5.45;;
22711;SDS011;11523;50.390;8.072;2022-09-01T04:56:19;6.20;;;5.60;;
22711;SDS011;11523;50.390;8.072;2022-09-01T04:58:46;7.85;;;6.07;;
22711;SDS011;11523;50.390;8.072;2022-09-01T05:01:17;6.70;;;5.65;;
22711;SDS011;11523;50.390;8.072;2022-09-01T05:03:44;9.68;;;6.22;;
22711;SDS011;11523;50.390;8.072;2022-09-01T05:06:13;6.40;;;5.35;;
22711;SDS011;11523;50.390;8.072;2022-09-01T05:08:39;5.95;;;5.35;;
22711;SDS011;11523;50.390;8.072;2022-09-01T05:11:05;6.28;;;5.68;;
22711;SDS011;11523;50.390;8.072;2022-09-01T05:13:32;6.38;;;5.70;;
22711;SDS011;11523;50.390;8.072;2022-09-01T05:16:00;6.68;;;6.07;;
22711;SDS011;11523;50.390;8.072;2022-09-01T05:18:26;6.50;;;5.55;;
22711;SDS011;11523;50.390;8.072;2022-09-01T05:20:52;6.88;;;5.78;;
22711;SDS011;11523;50.390;8.072;2022-09-01T05:23:18;6.68;;;5.70;;
22711;SDS011;11523;50.390;8.072;2022-09-01T05:25:46;7.50;;;5.57;;
22711;SDS011;11523;50.390;8.072;2022-09-01T05:28:13;6.55;;;5.90;;
22711;SDS011;11523;50.390;8.072;2022-09-01T05:30:41;6.43;;;5.13;;
22711;SDS011;11523;50.390;8.072;2022-09-01T05:33:08;6.10;;;5.50;;
22711;SDS011;11523;50.390;8.072;2022-09-01T05:35:35;6.72;;;5.38;;
22711;SDS011;11523;50.390;8.072;2022-09-01T05:38:02;7.40;;;5.38;;
22711;SDS011;11523;50.390;8.072;2022-09-01T05:40:28;7.10;;;5.15;;
22711;SDS011;11523;50.390;8.072;2022-09-01T05:42:54;8.43;;;5.60;;
22711;SDS011;11523;50.390;8.072;2022-09-01T05:45:22;7.50;;;5.43;;
22711;SDS011;11523;50.390;8.072;2022-09-01T05:47:48;7.32;;;5.63;;
22711;SDS011;11523;50.390;8.072;2022-09-01T05:50:14;7.13;;;5.80;;
22711;SDS011;11523;50.390;8.072;2022-09-01T05:52:40;7.68;;;5.72;;
22711;SDS011;11523;50.390;8.072;2022-09-01T05:55:12;12.27;;;6.25;;
22711;SDS011;11523;50.390;8.072;2022-09-01T05:57:39;9.77;;;5.85;;
22711;SDS011;11523;50.390;8.072;2022-09-01T06:00:06;7.03;;;5.25;;
22711;SDS011;11523;50.390;8.072;2022-09-01T06:02:38;7.68;;;5.45;;
22711;SDS011;11523;50.390;8.072;2022-09-01T06:05:04;6.15;;;5.55;;
22711;SDS011;11523;50.390;8.072;2022-09-01T06:07:31;6.43;;;5.20;;
22711;SDS011;11523;50.390;8.072;2022-09-01T06:09:57;5.95;;;5.32;;
22711;SDS011;11523;50.390;8.072;2022-09-01T06:12:24;5.88;;;5.35;;
22711;SDS011;11523;50.390;8.072;2022-09-01T06:14:52;7.90;;;5.45;;
22711;SDS011;11523;50.390;8.072;2022-09-01T06:17:19;6.88;;;5.72;;
22711;SDS011;11523;50.390;8.072;2022-09-01T06:19:49;11.85;;;5.82;;
22711;SDS011;11523;50.390;8.072;2022-09-01T06:22:16;7.05;;;6.13;;
22711;SDS011;11523;50.390;8.072;2022-09-01T06:24:42;8.77;;;5.63;;
22711;SDS011;11523;50.390;8.072;2022-09-01T06:27:08;8.73;;;6.22;;
22711;SDS011;11523;50.390;8.072;2022-09-01T06:29:35;8.10;;;5.75;;
22711;SDS011;11523;50.390;8.072;2022-09-01T06:32:04;9.75;;;5.40;;
22711;SDS011;11523;50.390;8.072;2022-09-01T06:34:33;7.18;;;5.60;;
22711;SDS011;11523;50.390;8.072;2022-09-01T06:37:00;8.85;;;6.00;;
22711;SDS011;11523;50.390;8.072;2022-09-01T06:39:26;11.65;;;6.30;;
22711;SDS011;11523;50.390;8.072;2022-09-01T06:41:52;10.05;;;5.70;;
22711;SDS011;11523;50.390;8.072;2022-09-01T06:44:19;13.18;;;6.78;;
22711;SDS011;11523;50.390;8.072;2022-09-01T06:46:49;9.15;;;6.10;;
22711;SDS011;11523;50.390;8.072;2022-09-01T06:49:15;6.43;;;5.50;;
22711;SDS011;11523;50.390;8.072;2022-09-01T06:51:41;10.38;;;5.82;;
22711;SDS011;11523;50.390;8.072;2022-09-01T06:54:08;9.02;;;5.55;;
22711;SDS011;11523;50.390;8.072;2022-09-01T06:56:38;8.55;;;5.57;;
22711;SDS011;11523;50.390;8.072;2022-09-01T06:59:04;8.27;;;5.70;;
22711;SDS011;11523;50.390;8.072;2022-09-01T07:01:31;10.10;;;5.78;;
22711;SDS011;11523;50.390;8.072;2022-09-01T07:03:57;9.75;;;5.57;;
22711;SDS011;11523;50.390;8.072;2022-09-01T07:06:24;5.40;;;4.47;;
22711;SDS011;11523;50.390;8.072;2022-09-01T07:08:54;6.72;;;2.75;;
22711;SDS011;11523;50.390;8.072;2022-09-01T07:11:22;5.45;;;3.10;;
22711;SDS011;11523;50.390;8.072;2022-09-01T07:13:50;8.07;;;2.50;;
22711;SDS011;11523;50.390;8.072;2022-09-01T07:16:18;6.85;;;2.72;;
22711;SDS011;11523;50.390;8.072;2022-09-01T07:18:47;2.70;;;1.92;;
22711;SDS011;11523;50.390;8.072;2022-09-01T07:21:13;2.90;;;1.90;;
22711;SDS011;11523;50.390;8.072;2022-09-01T07:23:39;7.05;;;2.38;;
22711;SDS011;11523;50.390;8.072;2022-09-01T07:26:07;3.92;;;2.20;;
22711;SDS011;11523;50.390;8.072;2022-09-01T07:28:34;8.98;;;2.55;;
22711;SDS011;11523;50.390;8.072;2022-09-01T07:30:59;7.40;;;2.35;;
22711;SDS011;11523;50.390;8.072;2022-09-01T07:33:29;5.88;;;2.30;;
22711;SDS011;11523;50.390;8.072;2022-09-01T07:35:56;4.05;;;1.92;;
22711;SDS011;11523;50.390;8.072;2022-09-01T07:38:25;3.05;;;2.10;;
22711;SDS011;11523;50.390;8.072;2022-09-01T07:40:52;4.25;;;2.22;;
22711;SDS011;11523;50.390;8.072;2022-09-01T07:45:49;2.72;;;1.75;;
22711;SDS011;11523;50.390;8.072;2022-09-01T07:48:16;3.13;;;1.73;;
22711;SDS011;11523;50.390;8.072;2022-09-01T07:50:44;1.95;;;1.52;;
22711;SDS011;11523;50.390;8.072;2022-09-01T07:53:11;2.95;;;1.80;;
22711;SDS011;11523;50.390;8.072;2022-09-01T07:55:39;3.65;;;1.98;;
22711;SDS011;11523;50.390;8.072;2022-09-01T07:58:05;3.72;;;1.67;;
22711;SDS011;11523;50.390;8.072;2022-09-01T08:00:32;1.75;;;1.63;;
22711;SDS011;11523;50.390;8.072;2022-09-01T08:02:58;4.03;;;1.70;;
22711;SDS011;11523;50.390;8.072;2022-09-01T08:05:24;4.47;;;1.67;;
22711;SDS011;11523;50.390;8.072;2022-09-01T08:07:51;4.07;;;1.52;;
22711;SDS011;11523;50.390;8.072;2022-09-01T08:10:17;1.98;;;1.60;;
22711;SDS011;11523;50.390;8.072;2022-09-01T08:12:43;5.40;;;1.55;;
22711;SDS011;11523;50.390;8.072;2022-09-01T08:15:09;6.43;;;1.80;;
22711;SDS011;11523;50.390;8.072;2022-09-01T08:17:40;7.47;;;2.00;;
22711;SDS011;11523;50.390;8.072;2022-09-01T08:20:06;5.35;;;1.52;;
22711;SDS011;11523;50.390;8.072;2022-09-01T08:22:33;3.88;;;1.70;;
22711;SDS011;11523;50.390;8.072;2022-09-01T08:25:01;6.20;;;2.15;;
22711;SDS011;11523;50.390;8.072;2022-09-01T08:27:27;2.50;;;1.77;;
22711;SDS011;11523;50.390;8.072;2022-09-01T08:29:53;5.85;;;1.90;;
22711;SDS011;11523;50.390;8.072;2022-09-01T08:32:19;4.30;;;1.55;;
22711;SDS011;11523;50.390;8.072;2022-09-01T08:34:46;1.73;;;1.50;;
22711;SDS011;11523;50.390;8.072;2022-09-01T08:37:12;3.15;;;1.83;;
22711;SDS011;11523;50.390;8.072;2022-09-01T08:39:38;2.58;;;1.50;;
22711;SDS011;11523;50.390;8.072;2022-09-01T08:42:10;3.85;;;1.90;;
22711;SDS011;11523;50.390;8.072;2022-09-01T08:44:50;2.33;;;1.88;;
22711;SDS011;11523;50.390;8.072;2022-09-01T08:47:19;6.22;;;1.70;;
22711;SDS011;11523;50.390;8.072;2022-09-01T08:49:45;2.55;;;1.70;;
22711;SDS011;11523;50.390;8.072;2022-09-01T08:52:27;5.22;;;2.17;;
22711;SDS011;11523;50.390;8.072;2022-09-01T08:54:55;5.28;;;2.22;;
22711;SDS011;11523;50.390;8.072;2022-09-01T08:57:33;3.10;;;1.70;;
22711;SDS011;11523;50.390;8.072;2022-09-01T08:59:59;2.58;;;1.98;;
22711;SDS011;11523;50.390;8.072;2022-09-01T09:10:29;3.47;;;1.80;;
22711;SDS011;11523;50.390;8.072;2022-09-01T09:13:08;3.67;;;1.80;;
22711;SDS011;11523;50.390;8.072;2022-09-01T09:18:30;8.15;;;2.15;;
22711;SDS011;11523;50.390;8.072;2022-09-01T09:21:01;6.45;;;1.92;;
22711;SDS011;11523;50.390;8.072;2022-09-01T09:23:32;2.30;;;1.90;;
22711;SDS011;11523;50.390;8.072;2022-09-01T09:26:00;5.28;;;2.00;;
22711;SDS011;11523;50.390;8.072;2022-09-01T09:28:26;2.63;;;1.60;;
22711;SDS011;11523;50.390;8.072;2022-09-01T09:31:23;5.93;;;2.10;;
22711;SDS011;11523;50.390;8.072;2022-09-01T09:33:38;4.00;;;2.10;;
22711;SDS011;11523;50.390;8.072;2022-09-01T09:36:17;4.75;;;2.05;;
22711;SDS011;11523;50.390;8.072;2022-09-01T09:38:43;2.53;;;1.90;;
22711;SDS011;11523;50.390;8.072;2022-09-01T09:41:17;5.68;;;2.20;;
22711;SDS011;11523;50.390;8.072;2022-09-01T09:46:40;4.10;;;2.17;;
22711;SDS011;11523;50.390;8.072;2022-09-01T09:49:08;3.75;;;2.13;;
22711;SDS011;11523;50.390;8.072;2022-09-01T09:51:36;3.95;;;2.20;;
22711;SDS011;11523;50.390;8.072;2022-09-01T09:54:10;5.47;;;2.10;;
22711;SDS011;11523;50.390;8.072;2022-09-01T09:56:37;3.97;;;2.10;;
22711;SDS011;11523;50.390;8.072;2022-09-01T09:59:15;2.75;;;2.00;;
22711;SDS011;11523;50.390;8.072;2022-09-01T10:01:48;5.07;;;2.20;;
22711;SDS011;11523;50.390;8.072;2022-09-01T10:04:29;4.50;;;2.25;;
22711;SDS011;11523;50.390;8.072;2022-09-01T10:06:55;3.78;;;2.30;;
22711;SDS011;11523;50.390;8.072;2022-09-01T10:11:49;5.03;;;2.50;;
22711;SDS011;11523;50.390;8.072;2022-09-01T10:14:18;4.78;;;2.28;;
22711;SDS011;11523;50.390;8.072;2022-09-01T10:16:46;6.07;;;2.85;;
22711;SDS011;11523;50.390;8.072;2022-09-01T10:19:12;5.18;;;2.20;;
22711;SDS011;11523;50.390;8.072;2022-09-01T10:21:40;4.82;;;2.20;;
22711;SDS011;11523;50.390;8.072;2022-09-01T10:26:49;3.30;;;2.30;;
22711;SDS011;11523;50.390;8.072;2022-09-01T10:29:19;3.75;;;2.08;;
22711;SDS011;11523;50.390;8.072;2022-09-01T10:31:46;3.47;;;2.28;;
22711;SDS011;11523;50.390;8.072;2022-09-01T10:34:15;3.85;;;2.30;;
22711;SDS011;11523;50.390;8.072;2022-09-01T10:36:43;3.95;;;1.98;;
22711;SDS011;11523;50.390;8.072;2022-09-01T10:39:11;3.22;;;2.00;;
22711;SDS011;11523;50.390;8.072;2022-09-01T10:41:44;2.88;;;2.03;;
22711;SDS011;11523;50.390;8.072;2022-09-01T10:44:19;4.10;;;2.50;;
22711;SDS011;11523;50.390;8.072;2022-09-01T10:46:46;2.22;;;1.55;;
22711;SDS011;11523;50.390;8.072;2022-09-01T10:49:56;3.58;;;2.10;;
22711;SDS011;11523;50.390;8.072;2022-09-01T10:51:58;2.65;;;2.17;;
22711;SDS011;11523;50.390;8.072;2022-09-01T10:54:47;5.10;;;2.38;;
22711;SDS011;11523;50.390;8.072;2022-09-01T10:57:35;4.07;;;2.00;;
22711;SDS011;11523;50.390;8.072;2022-09-01T11:00:14;4.05;;;2.35;;
22711;SDS011;11523;50.390;8.072;2022-09-01T11:02:42;2.70;;;2.10;;
22711;SDS011;11523;50.390;8.072;2022-09-01T11:05:34;4.60;;;2.00;;
22711;SDS011;11523;50.390;8.072;2022-09-01T11:08:20;2.88;;;2.10;;
22711;SDS011;11523;50.390;8.072;2022-09-01T11:13:35;2.47;;;1.90;;
22711;SDS011;11523;50.390;8.072;2022-09-01T11:21:25;2.90;;;1.80;;
22711;SDS011;11523;50.390;8.072;2022-09-01T11:29:03;4.18;;;2.17;;
22711;SDS011;11523;50.390;8.072;2022-09-01T11:31:30;2.13;;;1.92;;
22711;SDS011;11523;50.390;8.072;2022-09-01T11:36:53;2.00;;;1.80;;
22711;SDS011;11523;50.390;8.072;2022-09-01T11:46:51;3.80;;;1.73;;
22711;SDS011;11523;50.390;8.072;2022-09-01T11:49:29;5.35;;;2.03;;
22711;SDS011;11523;50.390;8.072;2022-09-01T11:51:56;3.85;;;1.75;;
22711;SDS011;11523;50.390;8.072;2022-09-01T11:54:24;3.58;;;1.60;;
22711;SDS011;11523;50.390;8.072;2022-09-01T11:56:50;2.67;;;1.88;;
22711;SDS011;11523;50.390;8.072;2022-09-01T11:59:33;2.63;;;1.90;;
22711;SDS011;11523;50.390;8.072;2022-09-01T12:01:59;3.08;;;1.60;;
22711;SDS011;11523;50.390;8.072;2022-09-01T12:04:29;2.03;;;1.60;;
22711;SDS011;11523;50.390;8.072;2022-09-01T12:07:02;3.35;;;2.00;;
22711;SDS011;11523;50.390;8.072;2022-09-01T12:09:32;3.60;;;1.70;;
22711;SDS011;11523;50.390;8.072;2022-09-01T12:11:58;6.45;;;1.98;;
22711;SDS011;11523;50.390;8.072;2022-09-01T12:14:24;2.40;;;1.70;;
22711;SDS011;11523;50.390;8.072;2022-09-01T12:16:59;1.70;;;1.60;;
22711;SDS011;11523;50.390;8.072;2022-09-01T12:19:26;2.25;;;1.70;;
22711;SDS011;11523;50.390;8.072;2022-09-01T12:22:00;6.47;;;1.80;;
22711;SDS011;11523;50.390;8.072;2022-09-01T12:24:26;1.63;;;1.53;;
22711;SDS011;11523;50.390;8.072;2022-09-01T12:26:53;1.70;;;1.60;;
22711;SDS011;11523;50.390;8.072;2022-09-01T12:29:23;3.95;;;1.95;;
22711;SDS011;11523;50.390;8.072;2022-09-01T12:31:49;1.73;;;1.60;;
22711;SDS011;11523;50.390;8.072;2022-09-01T12:39:49;4.20;;;1.67;;
22711;SDS011;11523;50.390;8.072;2022-09-01T12:52:27;2.72;;;1.90;;
22711;SDS011;11523;50.390;8.072;2022-09-01T12:55:07;2.00;;;1.83;;
22711;SDS011;11523;50.390;8.072;2022-09-01T12:57:35;6.47;;;2.00;;
22711;SDS011;11523;50.390;8.072;2022-09-01T13:00:06;1.98;;;1.80;;
22711;SDS011;11523;50.390;8.072;2022-09-01T13:02:34;4.03;;;1.65;;
22711;SDS011;11523;50.390;8.072;2022-09-01T13:07:45;3.08;;;1.85;;
22711;SDS011;11523;50.390;8.072;2022-09-01T13:10:11;2.35;;;1.90;;
22711;SDS011;11523;50.390;8.072;2022-09-01T13:12:41;3.47;;;1.80;;
22711;SDS011;11523;50.390;8.072;2022-09-01T13:15:07;3.08;;;2.00;;
22711;SDS011;11523;50.390;8.072;2022-09-01T13:17:33;4.32;;;1.92;;
22711;SDS011;11523;50.390;8.072;2022-09-01T13:19:59;2.70;;;1.98;;
22711;SDS011;11523;50.390;8.072;2022-09-01T13:22:25;2.15;;;1.90;;
22711;SDS011;11523;50.390;8.072;2022-09-01T13:24:51;2.15;;;1.52;;
22711;SDS011;11523;50.390;8.072;2022-09-01T13:27:17;1.75;;;1.58;;
22711;SDS011;11523;50.390;8.072;2022-09-01T13:29:43;2.83;;;2.03;;
22711;SDS011;11523;50.390;8.072;2022-09-01T13:32:10;2.47;;;1.92;;
22711;SDS011;11523;50.390;8.072;2022-09-01T13:34:36;2.58;;;1.75;;
22711;SDS011;11523;50.390;8.072;2022-09-01T13:37:03;4.22;;;1.95;;
22711;SDS011;11523;50.390;8.072;2022-09-01T13:39:29;3.65;;;1.95;;
22711;SDS011;11523;50.390;8.072;2022-09-01T13:41:56;4.47;;;2.13;;
22711;SDS011;11523;50.390;8.072;2022-09-01T13:44:22;3.42;;;2.05;;
22711;SDS011;11523;50.390;8.072;2022-09-01T13:46:48;2.38;;;1.98;;
22711;SDS011;11523;50.390;8.072;2022-09-01T13:49:14;4.28;;;1.85;;
22711;SDS011;11523;50.390;8.072;2022-09-01T13:51:40;2.60;;;1.83;;
22711;SDS011;11523;50.390;8.072;2022-09-01T13:54:06;3.08;;;1.63;;
22711;SDS011;11523;50.390;8.072;2022-09-01T13:56:32;2.97;;;2.05;;
22711;SDS011;11523;50.390;8.072;2022-09-01T13:58:59;5.78;;;1.70;;
22711;SDS011;11523;50.390;8.072;2022-09-01T14:01:25;3.70;;;2.00;;
22711;SDS011;11523;50.390;8.072;2022-09-01T14:03:50;3.63;;;1.83;;
22711;SDS011;11523;50.390;8.072;2022-09-01T14:06:16;2.08;;;1.80;;
22711;SDS011;11523;50.390;8.072;2022-09-01T14:08:42;5.15;;;2.15;;
22711;SDS011;11523;50.390;8.072;2022-09-01T14:11:14;3.70;;;1.85;;
22711;SDS011;11523;50.390;8.072;2022-09-01T14:13:40;2.42;;;1.75;;
22711;SDS011;11523;50.390;8.072;2022-09-01T14:16:12;3.42;;;1.70;;
22711;SDS011;11523;50.390;8.072;2022-09-01T14:18:38;3.35;;;1.60;;
22711;SDS011;11523;50.390;8.072;2022-09-01T14:21:05;2.78;;;1.88;;
22711;SDS011;11523;50.390;8.072;2022-09-01T14:23:34;1.80;;;1.70;;
22711;SDS011;11523;50.390;8.072;2022-09-01T14:26:00;3.28;;;1.60;;
22711;SDS011;11523;50.390;8.072;2022-09-01T14:28:26;2.55;;;1.73;;
22711;SDS011;11523;50.390;8.072;2022-09-01T14:30:52;3.90;;;1.63;;
22711;SDS011;11523;50.390;8.072;2022-09-01T14:33:18;4.82;;;1.80;;
22711;SDS011;11523;50.390;8.072;2022-09-01T14:35:48;2.63;;;1.67;;
22711;SDS011;11523;50.390;8.072;2022-09-01T14:38:14;3.42;;;1.90;;
22711;SDS011;11523;50.390;8.072;2022-09-01T14:40:41;2.85;;;1.30;;
22711;SDS011;11523;50.390;8.072;2022-09-01T14:43:08;4.55;;;1.95;;
22711;SDS011;11523;50.390;8.072;2022-09-01T14:45:34;2.10;;;1.90;;
22711;SDS011;11523;50.390;8.072;2022-09-01T14:48:08;2.85;;;1.80;;
22711;SDS011;11523;50.390;8.072;2022-09-01T14:50:37;2.65;;;1.77;;
22711;SDS011;11523;50.390;8.072;2022-09-01T14:53:04;3.10;;;1.80;;
22711;SDS011;11523;50.390;8.072;2022-09-01T14:55:30;2.55;;;1.92;;
22711;SDS011;11523;50.390;8.072;2022-09-01T14:57:56;4.70;;;2.13;;
22711;SDS011;11523;50.390;8.072;2022-09-01T15:00:24;4.95;;;1.67;;
22711;SDS011;11523;50.390;8.072;2022-09-01T15:02:50;2.65;;;1.77;;
22711;SDS011;11523;50.390;8.072;2022-09-01T15:05:16;3.90;;;1.90;;
22711;SDS011;11523;50.390;8.072;2022-09-01T15:07:43;4.22;;;2.00;;
22711;SDS011;11523;50.390;8.072;2022-09-01T15:10:10;3.20;;;1.75;;
22711;SDS011;11523;50.390;8.072;2022-09-01T15:12:36;2.35;;;1.80;;
22711;SDS011;11523;50.390;8.072;2022-09-01T15:15:03;1.65;;;1.55;;
22711;SDS011;11523;50.390;8.072;2022-09-01T15:17:30;2.95;;;1.67;;
22711;SDS011;11523;50.390;8.072;2022-09-01T15:19:56;3.10;;;1.90;;
22711;SDS011;11523;50.390;8.072;2022-09-01T15:22:44;3.15;;;1.90;;
22711;SDS011;11523;50.390;8.072;2022-09-01T15:25:11;3.28;;;2.10;;
22711;SDS011;11523;50.390;8.072;2022-09-01T15:27:37;2.95;;;1.77;;
22711;SDS011;11523;50.390;8.072;2022-09-01T15:30:03;4.10;;;1.98;;
22711;SDS011;11523;50.390;8.072;2022-09-01T15:32:29;1.88;;;1.42;;
22711;SDS011;11523;50.390;8.072;2022-09-01T15:34:55;3.78;;;1.70;;
22711;SDS011;11523;50.390;8.072;2022-09-01T15:37:21;1.73;;;1.63;;
22711;SDS011;11523;50.390;8.072;2022-09-01T15:39:47;3.50;;;1.80;;
22711;SDS011;11523;50.390;8.072;2022-09-01T15:42:13;2.33;;;2.03;;
22711;SDS011;11523;50.390;8.072;2022-09-01T15:44:40;3.13;;;1.90;;
22711;SDS011;11523;50.390;8.072;2022-09-01T15:47:07;2.78;;;1.85;;
22711;SDS011;11523;50.390;8.072;2022-09-01T15:49:34;4.32;;;2.00;;
22711;SDS011;11523;50.390;8.072;2022-09-01T15:52:07;1.80;;;1.70;;
22711;SDS011;11523;50.390;8.072;2022-09-01T15:54:36;2.92;;;1.90;;
22711;SDS011;11523;50.390;8.072;2022-09-01T15:57:02;1.73;;;1.63;;
22711;SDS011;11523;50.390;8.072;2022-09-01T15:59:28;3.90;;;1.90;;
22711;SDS011;11523;50.390;8.072;2022-09-01T16:01:54;3.33;;;2.10;;
22711;SDS011;11523;50.390;8.072;2022-09-01T16:04:21;3.58;;;1.80;;
22711;SDS011;11523;50.390;8.072;2022-09-01T16:06:47;3.20;;;1.90;;
22711;SDS011;11523;50.390;8.072;2022-09-01T16:09:15;3.35;;;1.90;;
22711;SDS011;11523;50.390;8.072;2022-09-01T16:11:42;2.05;;;1.85;;
22711;SDS011;11523;50.390;8.072;2022-09-01T16:14:08;2.15;;;1.77;;
22711;SDS011;11523;50.390;8.072;2022-09-01T16:24:44;3.53;;;1.92;;
22711;SDS011;11523;50.390;8.072;2022-09-01T16:27:18;9.88;;;2.20;;
22711;SDS011;11523;50.390;8.072;2022-09-01T16:32:11;2.88;;;1.80;;
22711;SDS011;11523;50.390;8.072;2022-09-01T16:34:39;3.92;;;1.60;;
22711;SDS011;11523;50.390;8.072;2022-09-01T16:37:14;3.42;;;1.70;;
22711;SDS011;11523;50.390;8.072;2022-09-01T16:47:38;2.45;;;1.70;;
22711;SDS011;11523;50.390;8.072;2022-09-01T16:50:19;3.50;;;1.90;;
22711;SDS011;11523;50.390;8.072;2022-09-01T17:00:16;7.70;;;2.00;;
22711;SDS011;11523;50.390;8.072;2022-09-01T17:02:47;3.70;;;1.73;;
22711;SDS011;11523;50.390;8.072;2022-09-01T17:05:19;3.70;;;1.80;;
22711;SDS011;11523;50.390;8.072;2022-09-01T17:08:02;5.70;;;1.90;;
22711;SDS011;11523;50.390;8.072;2022-09-01T17:10:42;5.70;;;2.08;;
22711;SDS011;11523;50.390;8.072;2022-09-01T17:13:18;2.28;;;1.88;;
22711;SDS011;11523;50.390;8.072;2022-09-01T17:15:51;7.72;;;1.92;;
22711;SDS011;11523;50.390;8.072;2022-09-01T17:20:48;3.97;;;2.03;;
22711;SDS011;11523;50.390;8.072;2022-09-01T17:23:25;7.40;;;2.03;;
22711;SDS011;11523;50.390;8.072;2022-09-01T17:26:06;7.47;;;2.13;;
22711;SDS011;11523;50.390;8.072;2022-09-01T17:28:37;4.78;;;2.08;;
22711;SDS011;11523;50.390;8.072;2022-09-01T17:31:10;6.00;;;2.00;;
22711;SDS011;11523;50.390;8.072;2022-09-01T17:33:42;4.38;;;2.20;;
22711;SDS011;11523;50.390;8.072;2022-09-01T17:36:14;3.75;;;2.08;;
22711;SDS011;11523;50.390;8.072;2022-09-01T17:38:50;9.27;;;2.65;;
22711;SDS011;11523;50.390;8.072;2022-09-01T17:46:16;3.42;;;2.15;;
22711;SDS011;11523;50.390;8.072;2022-09-01T17:51:31;3.63;;;1.98;;
22711;SDS011;11523;50.390;8.072;2022-09-01T18:01:48;3.47;;;1.98;;
22711;SDS011;11523;50.390;8.072;2022-09-01T18:04:38;6.53;;;1.80;;
22711;SDS011;11523;50.390;8.072;2022-09-01T18:07:13;4.30;;;1.80;;
22711;SDS011;11523;50.390;8.072;2022-09-01T18:09:44;6.05;;;1.80;;
22711;SDS011;11523;50.390;8.072;2022-09-01T18:12:13;8.23;;;2.30;;
22711;SDS011;11523;50.390;8.072;2022-09-01T18:14:46;4.55;;;2.30;;
22711;SDS011;11523;50.390;8.072;2022-09-01T18:17:18;8.40;;;2.05;;
22711;SDS011;11523;50.390;8.072;2022-09-01T18:19:47;3.88;;;2.10;;
22711;SDS011;11523;50.390;8.072;2022-09-01T18:22:15;3.47;;;2.20;;
22711;SDS011;11523;50.390;8.072;2022-09-01T18:24:47;3.40;;;1.85;;
22711;SDS011;11523;50.390;8.072;2022-09-01T18:27:16;5.43;;;1.80;;
22711;SDS011;11523;50.390;8.072;2022-09-01T18:29:43;2.17;;;1.90;;
22711;SDS011;11523;50.390;8.072;2022-09-01T18:32:18;5.25;;;2.10;;
22711;SDS011;11523;50.390;8.072;2022-09-01T18:35:06;3.65;;;2.00;;
22711;SDS011;11523;50.390;8.072;2022-09-01T18:40:03;5.82;;;2.08;;
22711;SDS011;11523;50.390;8.072;2022-09-01T18:42:41;3.03;;;1.90;;
22711;SDS011;11523;50.390;8.072;2022-09-01T18:47:44;3.13;;;1.98;;
22711;SDS011;11523;50.390;8.072;2022-09-01T18:50:26;4.22;;;2.20;;
22711;SDS011;11523;50.390;8.072;2022-09-01T18:53:08;7.32;;;2.35;;
22711;SDS011;11523;50.390;8.072;2022-09-01T18:55:41;4.18;;;2.10;;
22711;SDS011;11523;50.390;8.072;2022-09-01T18:58:18;6.07;;;2.05;;
22711;SDS011;11523;50.390;8.072;2022-09-01T19:00:59;5.57;;;2.10;;
22711;SDS011;11523;50.390;8.072;2022-09-01T19:07:00;3.67;;;2.15;;
22711;SDS011;11523;50.390;8.072;2022-09-01T19:14:21;4.30;;;2.08;;
22711;SDS011;11523;50.390;8.072;2022-09-01T19:22:18;4.72;;;1.92;;
22711;SDS011;11523;50.390;8.072;2022-09-01T19:24:52;1.70;;;1.60;;
22711;SDS011;11523;50.390;8.072;2022-09-01T19:27:40;7.93;;;2.45;;
22711;SDS011;11523;50.390;8.072;2022-09-01T19:30:06;2.63;;;2.03;;
22711;SDS011;11523;50.390;8.072;2022-09-01T19:32:34;3.95;;;2.33;;
22711;SDS011;11523;50.390;8.072;2022-09-01T19:35:05;4.55;;;2.15;;
22711;SDS011;11523;50.390;8.072;2022-09-01T19:37:34;3.22;;;2.42;;
22711;SDS011;11523;50.390;8.072;2022-09-01T19:40:00;5.25;;;2.20;;
22711;SDS011;11523;50.390;8.072;2022-09-01T19:42:35;4.22;;;2.60;;
22711;SDS011;11523;50.390;8.072;2022-09-01T19:50:12;5.25;;;2.25;;
22711;SDS011;11523;50.390;8.072;2022-09-01T19:52:48;6.03;;;2.10;;
22711;SDS011;11523;50.390;8.072;2022-09-01T19:57:45;2.90;;;2.08;;
22711;SDS011;11523;50.390;8.072;2022-09-01T20:00:24;2.25;;;1.90;;
22711;SDS011;11523;50.390;8.072;2022-09-01T20:05:41;8.00;;;2.45;;
22711;SDS011;11523;50.390;8.072;2022-09-01T20:10:55;5.05;;;2.42;;
22711;SDS011;11523;50.390;8.072;2022-09-01T20:15:53;5.00;;;2.30;;
22711;SDS011;11523;50.390;8.072;2022-09-01T20:18:28;5.35;;;2.10;;
22711;SDS011;11523;50.390;8.072;2022-09-01T20:20:57;4.15;;;2.05;;
22711;SDS011;11523;50.390;8.072;2022-09-01T20:31:12;5.40;;;2.38;;
22711;SDS011;11523;50.390;8.072;2022-09-01T20:36:30;3.80;;;2.00;;
22711;SDS011;11523;50.390;8.072;2022-09-01T20:39:08;5.15;;;2.10;;
22711;SDS011;11523;50.390;8.072;2022-09-01T20:41:58;8.27;;;2.10;;
22711;SDS011;11523;50.390;8.072;2022-09-01T20:46:56;4.60;;;2.38;;
22711;SDS011;11523;50.390;8.072;2022-09-01T20:49:22;5.32;;;2.40;;
22711;SDS011;11523;50.390;8.072;2022-09-01T20:51:53;3.33;;;1.95;;
22711;SDS011;11523;50.390;8.072;2022-09-01T20:57:06;4.22;;;1.80;;
22711;SDS011;11523;50.390;8.072;2022-09-01T21:04:57;2.53;;;1.77;;
22711;SDS011;11523;50.390;8.072;2022-09-01T21:07:37;6.15;;;1.83;;
22711;SDS011;11523;50.390;8.072;2022-09-01T21:22:20;2.25;;;1.80;;
22711;SDS011;11523;50.390;8.072;2022-09-01T21:24:46;2.90;;;1.67;;
22711;SDS011;11523;50.390;8.072;2022-09-01T21:30:02;3.35;;;1.75;;
